Time;durP1;ratioP1;P1;durP2;ratioP2;P2;SDS_P1;SDS_P2;PMS_P1;PMS_P2;Temp;Humidity;BMP_temperature;BMP_pressure;BME280_temperature;BME280_humidity;BME280_pressure;Samples;Min_cycle;Max_cycle;Signal;HPM_P1;HPM_P2
2023/06/27 00:00:13;;;;;;;;;;;23.10;59.20;;;22.37;53.29;100118.69;10248552;28;1955;-67
2023/06/27 00:05:08;;;;;;;;;;;23.10;59.20;;;22.38;53.35;100115.94;10248770;28;937;-67
2023/06/27 00:10:03;;;;;;;;;;;23.10;59.10;;;22.38;53.64;100123.06;10247425;28;1051;-67
2023/06/27 00:14:59;;;;;;;;;;;23.10;59.10;;;22.35;53.59;100116.13;10248474;28;762;-67
2023/06/27 00:19:58;;;;;;;;;;;23.10;59.20;;;22.35;53.71;100121.44;10248643;28;1965;-67
2023/06/27 00:24:53;;;;;;;;;;;23.10;59.80;;;22.33;53.65;100120.66;10248002;28;802;-67
2023/06/27 00:29:48;;;;;;;;;;;23.10;59.20;;;22.33;53.74;100119.81;10247788;28;868;-67
2023/06/27 00:34:44;;;;;;;;;;;23.10;59.20;;;22.31;53.73;100122.53;10246283;28;1244;-67
2023/06/27 00:39:39;;;;;;;;;;;23.10;59.20;;;22.30;53.84;100113.72;10246800;28;1902;-67
2023/06/27 00:44:35;;;;;;;;;;;23.10;59.20;;;22.30;53.68;100113.72;10246690;28;901;-67
2023/06/27 00:49:30;;;;;;;;;;;23.10;59.30;;;22.29;53.81;100109.34;10246501;28;817;-67
2023/06/27 00:54:26;;;;;;;;;;;23.10;59.30;;;22.28;53.72;100110.28;10245531;28;948;-67
2023/06/27 00:59:21;;;;;;;;;;;23.10;59.20;;;22.27;53.69;100113.06;10246643;28;1910;-67
2023/06/27 01:04:16;;;;;;;;;;;23.10;59.30;;;22.27;53.92;100115.72;10247177;28;941;-67
2023/06/27 01:09:12;;;;;;;;;;;23.00;59.10;;;22.25;53.99;100115.78;10246332;28;849;-67
2023/06/27 01:14:07;;;;;;;;;;;23.00;59.20;;;22.26;53.89;100121.94;10245499;28;903;-67
2023/06/27 01:19:03;;;;;;;;;;;23.00;59.30;;;22.23;53.75;100117.66;10245919;28;1906;-67
2023/06/27 01:23:58;;;;;;;;;;;23.00;59.10;;;22.23;53.96;100103.53;10244612;28;794;-67
2023/06/27 01:28:54;;;;;;;;;;;23.00;59.20;;;22.23;53.73;100111.50;10245056;28;827;-67
2023/06/27 01:33:49;;;;;;;;;;;23.00;59.20;;;22.20;53.83;100115.19;10245250;28;1134;-67
2023/06/27 01:38:44;;;;;;;;;;;23.00;59.30;;;22.20;53.87;100103.72;10245203;28;1894;-67
2023/06/27 01:43:40;;;;;;;;;;;23.00;59.20;;;22.20;54.06;100096.59;10244571;28;882;-67
2023/06/27 01:48:35;;;;;;;;;;;23.00;59.30;;;22.19;54.13;100100.22;10244544;28;967;-67
2023/06/27 01:53:31;;;;;;;;;;;23.00;59.20;;;22.18;54.10;100098.44;10245046;28;906;-67
2023/06/27 01:58:26;;;;;;;;;;;23.00;59.30;;;22.18;53.90;100097.59;10244447;28;802;-67
2023/06/27 02:03:21;;;;;;;;;;;22.90;59.20;;;22.16;53.93;100097.66;10244663;28;1976;-67
2023/06/27 02:08:17;;;;;;;;;;;22.90;59.20;;;22.15;54.15;100092.47;10243423;28;852;-67
2023/06/27 02:13:12;;;;;;;;;;;22.90;59.20;;;22.14;54.04;100085.41;10243301;28;967;-67
2023/06/27 02:18:08;;;;;;;;;;;22.90;59.30;;;22.14;53.94;100093.38;10243251;28;897;-67
2023/06/27 02:23:03;;;;;;;;;;;22.90;59.90;;;22.13;54.11;100092.53;10244329;28;1971;-67
2023/06/27 02:27:58;;;;;;;;;;;22.90;59.30;;;22.12;54.16;100087.34;10243058;28;991;-67
2023/06/27 02:32:54;;;;;;;;;;;22.90;59.30;;;22.10;54.14;100080.28;10243379;28;1320;-67
2023/06/27 02:37:49;;;;;;;;;;;22.80;59.30;;;22.10;54.04;100077.63;10242934;28;1012;-67
2023/06/27 02:42:45;;;;;;;;;;;22.80;59.30;;;22.10;54.16;100080.28;10243216;28;1919;-67
2023/06/27 02:47:40;;;;;;;;;;;22.80;59.30;;;22.10;54.00;100082.09;10243912;28;870;-67
2023/06/27 02:52:35;;;;;;;;;;;22.80;59.30;;;22.08;54.01;100087.47;10243210;28;872;-68
2023/06/27 02:57:31;;;;;;;;;;;22.80;59.30;;;22.07;54.02;100083.13;10243092;28;759;-67
2023/06/27 03:02:26;;;;;;;;;;;22.80;59.30;;;22.07;54.24;100074.31;10243324;28;1910;-67
2023/06/27 03:07:22;;;;;;;;;;;22.80;59.40;;;22.05;54.17;100069.06;10242957;28;814;-67
2023/06/27 03:12:17;;;;;;;;;;;22.70;59.30;;;22.04;54.11;100072.69;10243447;28;809;-67
2023/06/27 03:17:12;;;;;;;;;;;22.70;59.30;;;22.05;54.03;100087.66;10245626;28;810;-67
2023/06/27 03:22:08;;;;;;;;;;;22.70;59.40;;;22.03;54.07;100089.56;10249662;28;1902;-68
2023/06/27 03:27:03;;;;;;;;;;;22.70;59.40;;;22.03;54.12;100086.03;10250265;28;877;-67
2023/06/27 03:31:59;;;;;;;;;;;22.70;59.40;;;22.03;54.15;100088.69;10249581;28;1161;-69
2023/06/27 03:36:54;;;;;;;;;;;22.70;59.50;;;22.02;54.04;100089.63;10249884;28;808;-68
2023/06/27 03:41:50;;;;;;;;;;;22.70;59.50;;;22.01;54.15;100085.28;10248640;28;1914;-67
2023/06/27 03:46:45;;;;;;;;;;;22.70;59.50;;;21.99;54.13;100082.69;10249008;28;766;-67
2023/06/27 03:51:40;;;;;;;;;;;22.70;59.50;;;21.99;54.10;100088.00;10249974;28;936;-68
2023/06/27 03:56:36;;;;;;;;;;;22.70;59.50;;;21.98;54.16;100093.38;10248595;28;775;-67
2023/06/27 04:01:32;;;;;;;;;;;;;;;21.96;54.20;100098.78;10248353;28;1967;-67
2023/06/27 04:06:28;;;;;;;;;;;;;;;21.96;54.33;100092.63;10248883;28;876;-67
2023/06/27 04:11:23;;;;;;;;;;;;;;;21.96;54.10;100105.91;10248061;28;869;-67
2023/06/27 04:16:19;;;;;;;;;;;;;;;21.94;54.13;100098.00;10247862;28;901;-67
2023/06/27 04:21:15;;;;;;;;;;;22.70;59.10;;;21.93;54.34;100092.78;10247084;28;1878;-67
2023/06/27 04:26:15;;;;;;;;;;;22.60;59.60;;;21.92;54.34;100093.72;10248015;28;875;-66
2023/06/27 04:31:10;;;;;;;;;;;22.60;59.70;;;21.91;54.34;100084.91;10246329;28;1522;-67
2023/06/27 04:36:05;;;;;;;;;;;22.60;59.70;;;21.91;54.16;100082.25;10247171;28;751;-67
2023/06/27 04:41:03;;;;;;;;;;;22.60;59.70;;;21.92;54.29;100076.00;10247522;28;1963;-66
2023/06/27 04:45:59;;;;;;;;;;;22.60;59.80;;;21.90;54.21;100077.88;10246680;28;891;-67
2023/06/27 04:50:54;;;;;;;;;;;22.60;59.80;;;21.91;54.36;100073.44;10247051;28;787;-67
2023/06/27 04:55:50;;;;;;;;;;;22.60;59.80;;;21.90;54.21;100080.53;10246873;28;886;-67
2023/06/27 05:00:47;;;;;;;;;;;22.50;59.80;;;21.88;54.36;100079.78;10246616;28;1906;-66
2023/06/27 05:05:42;;;;;;;;;;;22.50;59.80;;;21.89;54.42;100073.53;10245836;28;962;-67
2023/06/27 05:10:38;;;;;;;;;;;22.50;59.90;;;21.87;54.21;100081.56;10246004;28;1054;-67
2023/06/27 05:15:34;;;;;;;;;;;22.50;59.90;;;21.86;54.40;100086.97;10245925;28;852;-67
2023/06/27 05:20:29;;;;;;;;;;;22.50;60.00;;;21.85;54.69;100088.78;10245354;28;1975;-66
2023/06/27 05:25:25;;;;;;;;;;;22.50;60.10;;;21.85;54.36;100088.78;10245220;28;822;-66
2023/06/27 05:30:20;;;;;;;;;;;22.50;60.20;;;21.83;54.66;100095.09;10245043;28;868;-67
2023/06/27 05:35:15;;;;;;;;;;;22.40;60.00;;;21.83;54.67;100092.44;10244409;28;1308;-67
2023/06/27 05:40:11;;;;;;;;;;;22.40;60.10;;;21.82;54.43;100080.09;10244702;28;1969;-67
2023/06/27 05:45:06;;;;;;;;;;;22.40;60.20;;;21.83;54.67;100088.00;10244622;28;767;-67
2023/06/27 05:50:02;;;;;;;;;;;22.40;60.50;;;21.81;54.74;100083.72;10244508;28;776;-67
2023/06/27 05:54:57;;;;;;;;;;;22.40;60.40;;;21.80;54.83;100096.13;10244724;28;939;-67
2023/06/27 05:59:52;;;;;;;;;;;22.40;60.40;;;21.79;54.67;100089.09;10244564;28;1965;-68
2023/06/27 06:04:48;;;;;;;;;;;22.40;60.50;;;21.77;54.65;100103.38;10243510;28;910;-67
2023/06/27 06:09:43;;;;;;;;;;;22.40;60.40;;;21.77;54.73;100092.75;10244034;28;818;-66
2023/06/27 06:14:39;;;;;;;;;;;22.40;60.60;;;21.74;54.64;100099.09;10243988;28;1207;-70
2023/06/27 06:19:34;;;;;;;;;;;22.30;60.50;;;21.73;54.68;100096.53;10243822;28;1914;-66
2023/06/27 06:24:30;;;;;;;;;;;22.30;60.30;;;21.69;54.85;100101.13;10243841;28;1033;-65
2023/06/27 06:29:25;;;;;;;;;;;22.30;60.30;;;21.65;54.67;100103.09;10244140;28;818;-65
2023/06/27 06:34:20;;;;;;;;;;;22.30;60.30;;;21.73;54.38;100107.16;10244601;28;1160;-68
2023/06/27 06:39:16;;;;;;;;;;;22.30;59.80;;;21.73;54.33;100112.47;10243445;28;1972;-69
2023/06/27 06:44:11;;;;;;;;;;;22.30;59.70;;;21.73;54.13;100115.13;10244546;28;885;-68
2023/06/27 06:49:07;;;;;;;;;;;22.30;59.70;;;21.72;54.38;100101.00;10243371;28;828;-68
2023/06/27 06:54:02;;;;;;;;;;;22.30;59.80;;;21.73;54.19;100096.53;10249531;28;881;-68
2023/06/27 06:58:57;;;;;;;;;;;22.30;59.80;;;21.73;54.33;100101.84;10250493;28;1910;-68
2023/06/27 07:03:53;;;;;;;;;;;22.30;59.90;;;21.72;54.29;100108.97;10250599;28;823;-68
2023/06/27 07:08:48;;;;;;;;;;;22.30;59.90;;;21.73;54.17;100109.81;10250439;28;859;-68
2023/06/27 07:13:44;;;;;;;;;;;22.30;59.90;;;21.72;54.19;100116.03;10250202;28;798;-69
2023/06/27 07:18:39;;;;;;;;;;;22.20;59.90;;;21.69;54.26;100109.09;10250212;28;937;-69
2023/06/27 07:23:36;;;;;;;;;;;22.20;59.90;;;21.70;54.25;100112.63;10250290;28;1906;-68
2023/06/27 07:28:31;;;;;;;;;;;22.20;59.90;;;21.69;54.35;100109.09;10249606;28;975;-68
2023/06/27 07:33:27;;;;;;;;;;;22.20;60.00;;;21.70;54.16;100109.97;10248880;28;1248;-68
2023/06/27 07:38:23;;;;;;;;;;;22.20;60.80;;;21.70;54.16;100109.97;10249335;28;797;-68
2023/06/27 07:43:19;;;;;;;;;;;22.20;60.00;;;21.70;54.25;100102.88;10249130;28;1981;-68
2023/06/27 07:48:14;;;;;;;;;;;22.20;60.00;;;21.70;54.09;100105.53;10249582;28;762;-69
2023/06/27 07:53:10;;;;;;;;;;;22.20;60.00;;;21.71;54.28;100104.56;10248154;28;1143;-68
2023/06/27 07:58:05;;;;;;;;;;;22.20;60.00;;;21.69;54.21;100094.97;10249169;28;861;-68
2023/06/27 08:03:00;;;;;;;;;;;22.20;60.00;;;21.71;54.07;100093.09;10247494;28;1906;-68
2023/06/27 08:07:56;;;;;;;;;;;22.20;60.00;;;21.70;54.24;100086.94;10249492;28;1024;-68
2023/06/27 08:12:51;;;;;;;;;;;22.20;60.00;;;21.71;54.00;100087.81;10247963;28;791;-69
2023/06/27 08:17:47;;;;;;;;;;;22.20;59.90;;;21.70;53.98;100084.28;10249126;28;949;-69
2023/06/27 08:22:42;;;;;;;;;;;22.20;59.90;;;21.70;54.14;100084.28;10248233;28;1910;-69
2023/06/27 08:27:38;;;;;;;;;;;22.20;60.00;;;21.70;54.17;100088.75;10247980;28;865;-69
2023/06/27 08:32:33;;;;;;;;;;;22.20;60.00;;;21.67;54.25;100085.31;10247184;28;1110;-69
2023/06/27 08:37:29;;;;;;;;;;;22.20;60.00;;;21.70;54.16;100086.94;10247367;28;948;-71
2023/06/27 08:42:24;;;;;;;;;;;22.10;59.90;;;21.72;54.06;100078.88;10246835;28;1914;-71
2023/06/27 08:47:20;;;;;;;;;;;22.10;59.90;;;21.70;53.92;100075.47;10246564;28;998;-71
2023/06/27 08:52:15;;;;;;;;;;;22.10;59.90;;;21.70;54.05;100076.34;10246528;28;806;-71
2023/06/27 08:57:11;;;;;;;;;;;22.10;59.90;;;21.72;53.94;100062.97;10246845;28;884;-71
2023/06/27 09:02:06;;;;;;;;;;;22.10;59.80;;;21.73;53.95;100067.34;10246095;28;1914;-71
2023/06/27 09:07:02;;;;;;;;;;;22.10;59.80;;;21.75;53.87;100061.03;10246506;28;909;-71
2023/06/27 09:11:57;;;;;;;;;;;22.20;59.90;;;21.75;54.01;100060.19;10245000;28;1304;-71
2023/06/27 09:16:53;;;;;;;;;;;22.20;59.90;;;21.72;53.49;100053.25;10245496;28;917;-70
2023/06/27 09:21:50;;;;;;;;;;;22.20;59.80;;;21.73;53.94;100054.09;10245504;28;1973;-71
2023/06/27 09:26:45;;;;;;;;;;;22.10;59.70;;;21.75;53.51;100053.06;10245154;28;827;-71
2023/06/27 09:31:41;;;;;;;;;;;22.20;59.80;;;21.76;53.65;100061.88;10244692;28;1385;-71
2023/06/27 09:36:36;;;;;;;;;;;22.20;59.70;;;21.74;53.53;100042.53;10244985;28;854;-71
2023/06/27 09:41:31;;;;;;;;;;;22.20;59.50;;;21.72;53.75;100049.69;10245546;28;1975;-72
2023/06/27 09:46:27;;;;;;;;;;;22.20;59.70;;;21.73;53.61;100038.16;10244631;28;720;-71
2023/06/27 09:51:22;;;;;;;;;;;22.10;59.60;;;21.73;53.54;100038.16;10244550;28;869;-71
2023/06/27 09:56:18;;;;;;;;;;;22.20;59.50;;;21.75;53.63;100044.25;10244388;28;818;-71
2023/06/27 10:01:13;;;;;;;;;;;22.20;59.50;;;21.73;53.65;100035.50;10244818;28;1902;-71
2023/06/27 10:06:08;;;;;;;;;;;22.20;59.40;;;21.67;53.42;100042.88;10244183;28;831;-71
2023/06/27 10:11:04;;;;;;;;;;;22.10;59.30;;;21.65;53.52;100052.69;10245234;28;917;-71
2023/06/27 10:15:59;;;;;;;;;;;22.10;59.40;;;21.65;53.55;100054.50;10243946;28;866;-71
2023/06/27 10:20:54;;;;;;;;;;;22.10;59.40;;;21.66;53.65;100053.56;10243932;28;1960;-72
2023/06/27 10:25:50;;;;;;;;;;;22.10;59.50;;;21.67;53.62;100044.66;10245535;28;892;-72
2023/06/27 10:30:46;;;;;;;;;;;22.10;59.40;;;21.71;53.61;100040.03;10249376;28;1195;-71
2023/06/27 10:35:41;;;;;;;;;;;22.10;59.40;;;21.75;53.33;100046.91;10251549;28;806;-70
2023/06/27 10:40:37;;;;;;;;;;;22.10;59.10;;;21.69;53.56;100042.78;10250385;28;1914;-72
2023/06/27 10:45:33;;;;;;;;;;;22.10;59.30;;;21.65;53.37;100031.47;10251326;28;883;-68
2023/06/27 10:50:32;;;;;;;;;;;22.10;58.90;;;21.65;53.08;100038.59;10251362;28;905;-70
2023/06/27 10:55:28;;;;;;;;;;;22.10;58.90;;;21.67;53.07;100040.22;10251991;28;866;-68
2023/06/27 11:00:23;;;;;;;;;;;22.10;58.90;;;21.68;53.32;100041.06;10250396;28;1973;-68
2023/06/27 11:05:18;;;;;;;;;;;22.10;59.10;;;21.66;52.86;100032.31;10250454;28;877;-70
2023/06/27 11:10:14;;;;;;;;;;;22.10;58.80;;;21.70;53.38;100028.59;10249916;28;860;-72
2023/06/27 11:15:09;;;;;;;;;;;22.10;59.20;;;21.69;53.45;100021.53;10250983;28;779;-71
2023/06/27 11:20:06;;;;;;;;;;;22.10;59.20;;;21.66;53.41;100027.88;10249827;28;1906;-71
2023/06/27 11:25:02;;;;;;;;;;;22.10;59.10;;;21.64;53.46;100028.91;10249262;28;867;-72
2023/06/27 11:29:57;;;;;;;;;;;22.10;59.10;;;21.61;53.44;100034.38;10249316;28;889;-71
2023/06/27 11:34:52;;;;;;;;;;;22.10;59.20;;;21.61;53.50;100029.06;10249905;28;1153;-71
2023/06/27 11:39:48;;;;;;;;;;;22.10;59.10;;;21.68;53.35;100019.84;10248835;28;1969;-72
2023/06/27 11:44:43;;;;;;;;;;;22.10;59.10;;;21.67;53.37;100021.66;10249208;28;775;-72
2023/06/27 11:49:38;;;;;;;;;;;22.10;59.00;;;21.64;53.24;100016.50;10249432;28;931;-71
2023/06/27 11:54:34;;;;;;;;;;;22.10;59.00;;;21.66;53.23;100017.25;10248649;28;936;-72
2023/06/27 11:59:30;;;;;;;;;;;22.10;58.80;;;21.64;53.26;100016.50;10248937;28;1914;-71
2023/06/27 12:04:25;;;;;;;;;;;22.10;58.70;;;21.62;52.23;100018.38;10249059;28;903;-71
2023/06/27 12:09:21;;;;;;;;;;;22.10;58.20;;;21.60;53.18;100011.47;10247183;28;1447;-71
2023/06/27 12:14:17;;;;;;;;;;;22.10;58.80;;;21.65;53.13;100018.22;10248111;28;871;-71
2023/06/27 12:19:12;;;;;;;;;;;22.10;58.70;;;21.72;52.70;100012.56;10247672;28;1898;-71
2023/06/27 12:24:08;;;;;;;;;;;22.10;58.40;;;21.74;52.79;99997.41;10248371;28;972;-71
2023/06/27 12:29:03;;;;;;;;;;;22.10;58.60;;;21.77;52.65;99998.13;10247925;28;846;-71
2023/06/27 12:33:59;;;;;;;;;;;22.10;58.70;;;21.79;52.78;99995.38;10246647;28;1560;-71
2023/06/27 12:38:54;;;;;;;;;;;22.10;58.40;;;21.77;52.63;99994.59;10246828;28;1906;-70
2023/06/27 12:43:50;;;;;;;;;;;22.10;58.50;;;21.73;52.97;99987.75;10246858;28;786;-71
2023/06/27 12:48:45;;;;;;;;;;;22.10;58.70;;;21.72;53.01;99986.91;10246699;28;849;-71
2023/06/27 12:53:40;;;;;;;;;;;22.10;58.60;;;21.73;52.87;99987.75;10246168;28;865;-71
2023/06/27 12:58:36;;;;;;;;;;;22.10;58.70;;;21.69;53.15;99997.66;10246615;28;859;-71
2023/06/27 13:03:31;;;;;;;;;;;22.10;58.80;;;21.70;52.90;99987.94;10246671;28;1910;-71
2023/06/27 13:08:27;;;;;;;;;;;22.10;58.80;;;21.70;52.78;99991.44;10245835;28;814;-71
2023/06/27 13:13:22;;;;;;;;;;;22.10;58.70;;;21.71;52.91;99982.53;10245540;28;826;-71
2023/06/27 13:18:18;;;;;;;;;;;22.10;58.70;;;21.74;52.79;99997.41;10245927;28;858;-71
2023/06/27 13:23:13;;;;;;;;;;;22.10;58.70;;;21.75;52.80;99985.88;10245803;28;1910;-71
2023/06/27 13:28:09;;;;;;;;;;;22.10;58.40;;;21.82;52.74;99968.66;10244408;28;933;-72
2023/06/27 13:33:04;;;;;;;;;;;22.20;58.30;;;21.80;52.68;99973.22;10244243;28;1140;-71
2023/06/27 13:38:01;;;;;;;;;;;22.20;58.40;;;21.77;52.63;99978.66;10245638;28;892;-71
2023/06/27 13:42:57;;;;;;;;;;;22.20;58.50;;;21.79;52.60;99967.03;10243778;28;1910;-71
2023/06/27 13:47:53;;;;;;;;;;;22.20;58.50;;;21.79;52.56;99976.78;10244341;28;929;-71
2023/06/27 13:52:48;;;;;;;;;;;22.20;58.50;;;21.78;52.50;99972.44;10244840;28;864;-71
2023/06/27 13:57:43;;;;;;;;;;;22.20;58.30;;;21.85;52.37;99974.66;10244253;28;868;-71
2023/06/27 14:02:39;;;;;;;;;;;22.20;58.30;;;21.92;52.04;99969.00;10243290;28;1963;-70
2023/06/27 14:07:34;;;;;;;;;;;22.20;58.10;;;21.98;51.88;99958.91;10244148;28;882;-71
2023/06/27 14:12:30;;;;;;;;;;;22.20;58.00;;;22.02;51.96;99957.75;10243324;28;910;-71
2023/06/27 14:17:25;;;;;;;;;;;22.30;58.00;;;22.05;51.72;99952.28;10243405;28;833;-71
2023/06/27 14:22:20;;;;;;;;;;;22.30;58.00;;;22.11;51.71;99945.75;10243875;28;1977;-71
2023/06/27 14:27:16;;;;;;;;;;;22.40;58.00;;;22.14;51.56;99948.25;10243687;28;901;-71
2023/06/27 14:32:11;;;;;;;;;;;22.40;58.00;;;22.17;51.60;99947.22;10244213;28;1386;-72
2023/06/27 14:37:07;;;;;;;;;;;22.40;58.00;;;22.17;51.54;99948.06;10243018;28;1083;-71
2023/06/27 14:42:03;;;;;;;;;;;22.40;57.90;;;22.06;51.81;99934.53;10243440;28;1910;-71
2023/06/27 14:46:58;;;;;;;;;;;22.40;57.90;;;22.21;51.60;99930.16;10243981;28;851;-71
2023/06/27 14:51:54;;;;;;;;;;;22.40;57.80;;;22.21;51.36;99938.13;10243265;28;881;-71
2023/06/27 14:56:49;;;;;;;;;;;22.40;57.80;;;22.16;51.56;99924.25;10243149;28;909;-70
2023/06/27 15:01:44;;;;;;;;;;;22.40;57.80;;;22.12;51.83;99926.25;10243458;28;1965;-71
2023/06/27 15:06:40;;;;;;;;;;;22.40;57.80;;;22.04;51.92;99921.38;10243046;28;870;-71
2023/06/27 15:11:35;;;;;;;;;;;22.40;57.80;;;21.97;52.06;99909.41;10242771;28;874;-71
2023/06/27 15:16:31;;;;;;;;;;;22.40;57.70;;;22.02;51.84;99901.16;10251233;28;791;-71
2023/06/27 15:21:26;;;;;;;;;;;22.40;57.50;;;22.07;51.58;99899.94;10249404;28;1906;-69
2023/06/27 15:26:21;;;;;;;;;;;22.40;57.40;;;22.16;51.48;99889.72;10249868;28;799;-71
2023/06/27 15:31:17;;;;;;;;;;;22.40;57.30;;;22.32;51.11;99893.22;10249400;28;1586;-71
2023/06/27 15:36:14;;;;;;;;;;;22.50;57.30;;;22.31;51.07;99896.81;10249402;28;920;-71
2023/06/27 15:41:09;;;;;;;;;;;22.50;57.50;;;22.19;51.44;99905.50;10249153;28;1914;-71
2023/06/27 15:46:05;;;;;;;;;;;22.50;57.50;;;22.14;51.73;99900.47;10249184;28;767;-71
2023/06/27 15:51:00;;;;;;;;;;;22.50;57.60;;;22.11;51.73;99903.28;10247934;28;1122;-73
2023/06/27 15:55:55;;;;;;;;;;;22.40;57.50;;;22.07;51.73;99905.25;10247162;28;932;-70
2023/06/27 16:00:51;;;;;;;;;;;22.40;57.60;;;22.03;51.81;99902.88;10248683;28;1898;-70
2023/06/27 16:05:46;;;;;;;;;;;22.40;57.60;;;22.03;51.78;99901.09;10247935;28;901;-70
2023/06/27 16:10:42;;;;;;;;;;;22.40;57.30;;;22.02;51.92;99901.16;10248844;28;923;-70
2023/06/27 16:15:37;;;;;;;;;;;22.40;57.00;;;22.01;51.85;99883.53;10247638;28;953;-70
2023/06/27 16:20:33;;;;;;;;;;;22.40;56.60;;;21.99;51.60;99886.28;10247597;28;1969;-71
2023/06/27 16:25:28;;;;;;;;;;;22.40;56.80;;;21.98;51.84;99897.84;10246750;28;827;-70
2023/06/27 16:30:24;;;;;;;;;;;22.40;56.80;;;21.98;51.52;99895.19;10247589;28;1105;-71
2023/06/27 16:35:21;;;;;;;;;;;22.40;56.40;;;21.96;51.43;99889.13;10247723;28;1294;-68
2023/06/27 16:40:16;;;;;;;;;;;22.40;56.50;;;21.98;51.44;99895.19;10247532;28;1914;-71
2023/06/27 16:45:12;;;;;;;;;;;22.40;57.20;;;21.95;51.35;99890.03;10246810;28;855;-71
2023/06/27 16:50:07;;;;;;;;;;;22.40;56.10;;;21.94;51.36;99892.81;10246742;28;907;-70
2023/06/27 16:55:02;;;;;;;;;;;22.40;56.50;;;21.94;51.61;99898.13;10246442;28;886;-69
2023/06/27 17:00:01;;;;;;;;;;;22.40;55.40;;;21.93;50.99;99896.38;10246262;28;1901;-70
2023/06/27 17:04:57;;;;;;;;;;;22.40;55.30;;;21.93;50.90;99902.56;10246081;28;931;-71
2023/06/27 17:09:52;;;;;;;;;;;22.40;55.50;;;21.91;50.51;99903.59;10246400;28;880;-71
2023/06/27 17:14:48;;;;;;;;;;;22.40;55.80;;;21.91;50.84;99901.81;10245818;28;779;-71
2023/06/27 17:19:43;;;;;;;;;;;22.40;55.80;;;21.89;51.07;99907.19;10246152;28;1905;-71
2023/06/27 17:24:38;;;;;;;;;;;22.40;55.80;;;21.89;49.96;99909.00;10245600;28;861;-71
2023/06/27 17:29:34;;;;;;;;;;;22.40;55.20;;;21.86;49.37;99910.03;10245865;28;891;-70
2023/06/27 17:34:29;;;;;;;;;;;22.40;55.30;;;21.85;49.88;99918.06;10245134;28;1094;-71
2023/06/27 17:39:25;;;;;;;;;;;22.30;55.90;;;21.80;49.98;99907.72;10245505;28;1918;-70
2023/06/27 17:44:20;;;;;;;;;;;22.30;56.60;;;21.81;49.83;99921.84;10244793;28;802;-70
2023/06/27 17:49:16;;;;;;;;;;;22.30;56.90;;;21.82;49.61;99918.22;10245376;28;871;-71
2023/06/27 17:54:11;;;;;;;;;;;22.30;57.30;;;21.80;49.54;99913.03;10244543;28;885;-71
2023/06/27 17:59:09;;;;;;;;;;;22.30;57.00;;;21.78;49.50;99919.38;10243955;28;1906;-71
2023/06/27 18:04:04;;;;;;;;;;;22.30;57.10;;;21.77;49.47;99904.38;10244644;28;1022;-71
2023/06/27 18:08:59;;;;;;;;;;;22.30;57.20;;;21.75;50.44;99901.84;10244279;28;897;-71
2023/06/27 18:13:55;;;;;;;;;;;22.30;57.20;;;21.74;50.29;99910.72;10243630;28;896;-71
2023/06/27 18:18:50;;;;;;;;;;;22.30;57.20;;;21.73;50.68;99905.50;10243342;28;865;-69
2023/06/27 18:23:46;;;;;;;;;;;22.20;56.90;;;21.72;50.65;99917.06;10243813;28;1875;-71
2023/06/27 18:28:41;;;;;;;;;;;22.20;56.90;;;21.71;50.83;99924.16;10243124;28;890;-70
2023/06/27 18:33:36;;;;;;;;;;;22.20;57.10;;;21.71;50.93;99923.31;10244500;28;1149;-70
2023/06/27 18:38:32;;;;;;;;;;;22.20;57.20;;;21.71;51.09;99933.91;10243637;28;841;-71
2023/06/27 18:43:28;;;;;;;;;;;22.20;57.30;;;21.71;51.17;99939.22;10243295;28;1918;-71
2023/06/27 18:48:23;;;;;;;;;;;22.20;57.30;;;21.69;51.17;99938.44;10247043;28;790;-71
2023/06/27 18:53:19;;;;;;;;;;;22.20;57.90;;;21.67;51.34;99944.72;10251958;28;882;-71
2023/06/27 18:58:14;;;;;;;;;;;22.20;57.40;;;21.66;51.20;99932.38;10251789;28;780;-71
2023/06/27 19:03:09;;;;;;;;;;;22.20;57.50;;;21.67;51.26;99936.75;10250811;28;1902;-71
2023/06/27 19:08:05;;;;;;;;;;;22.20;57.50;;;21.67;51.47;99933.25;10250733;28;826;-71
2023/06/27 19:13:04;;;;;;;;;;;22.20;57.70;;;21.66;51.60;99924.41;10250860;28;871;-71
2023/06/27 19:18:00;;;;;;;;;;;22.20;57.80;;;21.66;51.58;99926.22;10250282;28;884;-70
2023/06/27 19:22:55;;;;;;;;;;;22.20;57.90;;;21.66;51.67;99935.03;10250670;28;1965;-71
2023/06/27 19:27:50;;;;;;;;;;;22.20;58.00;;;21.66;51.79;99942.97;10249875;28;870;-68
2023/06/27 19:32:46;;;;;;;;;;;22.20;58.10;;;21.65;51.74;99938.63;10249653;28;1433;-68
2023/06/27 19:37:41;;;;;;;;;;;22.20;58.10;;;21.65;51.89;99941.28;10250154;28;889;-67
2023/06/27 19:42:37;;;;;;;;;;;22.20;58.30;;;21.64;51.86;99939.59;10249915;28;1910;-68
2023/06/27 19:47:32;;;;;;;;;;;22.20;58.50;;;21.63;51.74;99932.56;10249762;28;1003;-71
2023/06/27 19:52:27;;;;;;;;;;;22.20;58.50;;;21.63;51.77;99935.19;10249599;28;838;-71
2023/06/27 19:57:23;;;;;;;;;;;22.20;58.50;;;21.63;51.82;99937.84;10248072;28;1396;-71
2023/06/27 20:02:18;;;;;;;;;;;22.20;58.70;;;21.63;51.88;99942.31;10247509;28;1910;-71
2023/06/27 20:07:14;;;;;;;;;;;22.20;58.70;;;21.63;51.98;99947.63;10249079;28;789;-71
2023/06/27 20:12:09;;;;;;;;;;;22.20;58.90;;;21.63;51.91;99947.63;10248748;28;766;-71
2023/06/27 20:17:05;;;;;;;;;;;22.20;58.90;;;21.63;52.06;99950.28;10248083;28;937;-71
2023/06/27 20:22:02;;;;;;;;;;;22.20;58.90;;;21.62;52.14;99954.72;10248402;28;1967;-71
2023/06/27 20:26:57;;;;;;;;;;;22.20;59.00;;;21.62;52.03;99952.06;10248373;28;914;-71
2023/06/27 20:31:53;;;;;;;;;;;22.20;60.30;;;21.62;51.98;99957.38;10247445;28;1117;-71
2023/06/27 20:36:48;;;;;;;;;;;22.20;60.60;;;21.61;52.11;99966.28;10246729;28;849;-71
2023/06/27 20:41:44;;;;;;;;;;;22.20;60.70;;;21.61;52.03;99968.94;10247184;28;1906;-71
2023/06/27 20:46:39;;;;;;;;;;;22.20;60.70;;;21.60;52.26;99956.59;10246918;28;914;-71
2023/06/27 20:51:34;;;;;;;;;;;22.20;60.80;;;21.61;52.23;99963.63;10246811;28;768;-71
2023/06/27 20:56:30;;;;;;;;;;;22.20;60.90;;;21.61;52.21;99962.75;10246543;28;833;-71
2023/06/27 21:01:26;;;;;;;;;;;22.20;61.00;;;21.60;52.31;99967.22;10246233;28;1906;-71
2023/06/27 21:06:22;;;;;;;;;;;22.20;61.10;;;21.60;52.28;99961.91;10246772;28;866;-71
2023/06/27 21:11:17;;;;;;;;;;;22.20;61.10;;;21.60;52.18;99964.56;10246161;28;869;-71
2023/06/27 21:16:12;;;;;;;;;;;22.20;61.20;;;21.60;52.36;99961.91;10245285;28;1180;-71
2023/06/27 21:21:08;;;;;;;;;;;22.20;61.20;;;21.59;52.35;99968.16;10245499;28;1907;-71
2023/06/27 21:26:03;;;;;;;;;;;22.20;61.20;;;21.59;52.28;99973.47;10245567;28;879;-71
2023/06/27 21:30:59;;;;;;;;;;;22.20;61.30;;;21.59;52.25;99978.78;10245908;28;1283;-71
2023/06/27 21:35:54;;;;;;;;;;;22.20;61.40;;;21.59;52.22;99980.56;10245143;28;882;-71
2023/06/27 21:40:49;;;;;;;;;;;22.20;61.30;;;21.58;52.21;99977.03;10244772;28;1907;-71
2023/06/27 21:45:45;;;;;;;;;;;22.20;61.30;;;21.58;52.45;99984.16;10245524;28;822;-71
2023/06/27 21:50:40;;;;;;;;;;;22.20;61.30;;;21.58;52.25;99981.50;10244610;28;880;-71
2023/06/27 21:55:36;;;;;;;;;;;22.20;61.20;;;21.58;52.26;99978.84;10244529;28;784;-71
2023/06/27 22:00:31;;;;;;;;;;;22.20;61.20;;;21.57;52.31;99977.16;10244901;28;1906;-71
2023/06/27 22:05:27;;;;;;;;;;;22.20;61.20;;;21.57;52.50;99972.69;10245156;28;923;-71
2023/06/27 22:10:22;;;;;;;;;;;22.10;61.20;;;21.57;52.46;99970.03;10244085;28;810;-71
2023/06/27 22:15:17;;;;;;;;;;;22.20;61.30;;;21.57;52.32;99975.34;10243973;28;906;-67
2023/06/27 22:20:14;;;;;;;;;;;22.20;61.40;;;21.57;52.40;99974.50;10243951;28;1964;-71
2023/06/27 22:25:10;;;;;;;;;;;22.10;61.40;;;21.57;52.27;99977.16;10251129;28;876;-71
2023/06/27 22:30:05;;;;;;;;;;;22.20;61.50;;;21.56;52.33;99981.59;10252030;28;983;-71
2023/06/27 22:35:01;;;;;;;;;;;22.20;61.60;;;21.56;52.51;99973.66;10251582;28;1302;-71
2023/06/27 22:39:56;;;;;;;;;;;22.20;61.60;;;21.57;52.51;99977.16;10252442;28;1984;-71